createdAt,value
2023-05-05T04:48:24.814Z,9.13
2023-05-05T04:50:52.844Z,11.27
2023-05-05T05:05:41.018Z,12.43
2023-05-05T05:08:09.176Z,12.90
2023-05-05T05:10:37.658Z,12.30
2023-05-05T05:13:05.829Z,12.63
2023-05-05T05:15:33.873Z,12.07
2023-05-05T05:18:02.032Z,11.23
2023-05-05T05:20:31.385Z,10.53
2023-05-05T05:23:02.216Z,9.83
2023-05-05T05:25:30.360Z,9.13
2023-05-05T05:28:08.771Z,8.00
2023-05-05T05:30:37.492Z,8.20
2023-05-05T05:33:05.983Z,8.37
2023-05-05T05:35:34.131Z,7.77
2023-05-05T05:38:03.784Z,8.10
2023-05-05T05:40:32.314Z,7.87
2023-05-05T05:43:00.502Z,7.40
2023-05-05T05:45:28.601Z,7.40
2023-05-05T05:47:56.770Z,7.67
2023-05-05T05:50:27.174Z,7.30
2023-05-05T05:52:55.574Z,6.97
2023-05-05T05:55:25.083Z,7.83
2023-05-05T05:57:53.165Z,7.47
2023-05-05T06:00:21.430Z,7.10
2023-05-05T06:02:51.334Z,7.07
2023-05-05T06:05:19.617Z,8.07
2023-05-05T06:07:47.668Z,9.20
2023-05-05T06:10:27.172Z,9.67
2023-05-05T06:12:59.344Z,9.40
2023-05-05T06:15:27.414Z,8.37
2023-05-05T06:17:55.488Z,8.60
2023-05-05T06:20:23.699Z,7.80
2023-05-05T06:22:51.779Z,7.60
2023-05-05T06:25:19.778Z,7.30
2023-05-05T06:27:47.856Z,6.67
2023-05-05T06:30:17.761Z,6.47
2023-05-05T06:32:45.924Z,6.63
2023-05-05T06:35:14.064Z,6.53
2023-05-05T06:37:42.110Z,6.03
2023-05-05T06:40:11.550Z,5.93
2023-05-05T06:42:39.621Z,6.20
2023-05-05T06:45:08.753Z,5.70
2023-05-05T06:47:38.603Z,6.00
2023-05-05T06:50:08.910Z,5.77
2023-05-05T06:52:37.473Z,6.10
2023-05-05T06:55:06.175Z,6.07
2023-05-05T06:57:34.576Z,6.77
2023-05-05T07:00:06.168Z,6.30
2023-05-05T07:02:34.727Z,6.20
2023-05-05T07:05:04.471Z,6.20
2023-05-05T07:07:32.865Z,6.23
2023-05-05T07:10:00.986Z,6.57
2023-05-05T07:12:31.086Z,6.63
2023-05-05T07:14:59.160Z,7.03
2023-05-05T07:17:27.285Z,6.43
2023-05-05T07:19:55.555Z,7.00
2023-05-05T07:22:24.960Z,7.63
2023-05-05T07:24:53.436Z,7.53
2023-05-05T07:27:22.546Z,7.33
2023-05-05T07:29:50.719Z,7.03
2023-05-05T07:32:18.758Z,6.47
2023-05-05T07:34:46.861Z,7.83
2023-05-05T07:37:15.035Z,7.67
2023-05-05T07:39:44.548Z,8.37
2023-05-05T07:42:12.763Z,7.90
2023-05-05T07:44:40.885Z,8.43
2023-05-05T07:47:09.092Z,8.37
2023-05-05T07:49:37.206Z,7.90
2023-05-05T07:52:05.498Z,7.97
2023-05-05T07:54:33.684Z,8.47
2023-05-05T07:57:03.114Z,8.07
2023-05-05T07:59:31.154Z,8.27
2023-05-05T08:01:59.217Z,8.03
2023-05-05T08:04:27.381Z,7.77
2023-05-05T08:06:55.417Z,7.87
2023-05-05T08:09:23.489Z,8.30
2023-05-05T08:11:51.571Z,8.37
2023-05-05T08:14:21.061Z,8.03
2023-05-05T08:16:49.140Z,7.73
2023-05-05T08:19:28.997Z,7.27
2023-05-05T08:21:58.913Z,6.93
2023-05-05T08:24:29.357Z,6.70
2023-05-05T08:26:57.721Z,6.90
2023-05-05T08:29:27.633Z,6.73
2023-05-05T08:31:55.849Z,7.53
2023-05-05T08:34:23.980Z,7.50
2023-05-05T08:36:52.094Z,7.53
2023-05-05T08:39:20.553Z,7.70
2023-05-05T08:41:48.795Z,7.63
2023-05-05T08:44:17.008Z,7.43
2023-05-05T08:46:47.092Z,8.20
2023-05-05T08:49:17.164Z,8.10
2023-05-05T08:51:46.764Z,7.70
2023-05-05T08:54:19.378Z,7.20
2023-05-05T08:56:50.783Z,8.60
2023-05-05T08:59:20.048Z,7.43
2023-05-05T09:01:49.795Z,8.03
2023-05-05T09:04:19.128Z,7.30
2023-05-05T09:06:47.234Z,7.70
2023-05-05T09:09:16.140Z,6.47
2023-05-05T09:11:46.104Z,5.43
2023-05-05T09:14:14.225Z,5.53
2023-05-05T09:16:44.239Z,5.30
2023-05-05T09:19:13.681Z,5.07
2023-05-05T09:21:48.783Z,4.60
2023-05-05T09:24:16.868Z,5.40
2023-05-05T09:26:46.675Z,5.20
2023-05-05T09:29:19.605Z,5.07
2023-05-05T09:32:05.408Z,4.87
2023-05-05T09:34:36.218Z,4.87
2023-05-05T09:37:05.957Z,4.87
2023-05-05T09:39:34.193Z,5.20
2023-05-05T09:42:04.166Z,4.73
2023-05-05T09:44:37.264Z,4.67
2023-05-05T09:47:11.986Z,4.17
2023-05-05T09:49:58.586Z,3.90
2023-05-05T09:52:26.844Z,3.50
2023-05-05T09:54:58.263Z,4.00
2023-05-05T09:57:31.677Z,3.47
2023-05-05T10:00:01.756Z,4.20
2023-05-05T10:02:34.422Z,3.70
2023-05-05T10:05:14.746Z,3.40
2023-05-05T10:07:44.240Z,4.23
2023-05-05T10:10:13.928Z,4.50
2023-05-05T10:12:42.311Z,5.20
2023-05-05T10:15:11.655Z,4.40
2023-05-05T10:17:58.325Z,5.10
2023-05-05T10:20:37.531Z,5.17
2023-05-05T10:23:09.332Z,5.50
2023-05-05T10:25:42.859Z,4.43
2023-05-05T10:28:13.034Z,4.30
2023-05-05T10:30:47.152Z,4.50
2023-05-05T10:33:31.635Z,4.10
2023-05-05T10:36:05.215Z,4.07
2023-05-05T10:38:33.815Z,4.47
2023-05-05T10:41:02.636Z,4.00
2023-05-05T10:43:32.180Z,3.70
2023-05-05T10:46:01.128Z,3.50
2023-05-05T10:48:35.589Z,3.27
2023-05-05T10:51:27.494Z,3.60
2023-05-05T10:54:04.161Z,4.00
2023-05-05T10:56:33.833Z,3.63
2023-05-05T10:59:02.054Z,3.43
2023-05-05T11:01:32.637Z,3.30
2023-05-05T11:04:20.867Z,3.63
2023-05-05T11:07:27.530Z,3.70
2023-05-05T11:09:57.026Z,3.50
2023-05-05T11:12:25.118Z,3.93
2023-05-05T11:15:37.931Z,3.73
2023-05-05T11:18:08.452Z,3.70
2023-05-05T11:21:19.858Z,3.60
2023-05-05T11:23:51.170Z,3.10
2023-05-05T11:26:40.342Z,2.90
2023-05-05T11:29:09.816Z,3.40
2023-05-05T11:31:38.302Z,2.33
2023-05-05T11:34:36.632Z,2.03
2023-05-05T11:37:09.080Z,1.90
2023-05-05T11:39:43.963Z,1.73
2023-05-05T11:42:23.726Z,1.73
2023-05-05T11:44:53.454Z,1.63
2023-05-05T11:47:32.409Z,1.40
2023-05-05T11:50:18.623Z,1.90
2023-05-05T11:52:46.926Z,1.60
2023-05-05T11:55:22.212Z,1.40
2023-05-05T11:57:50.615Z,1.70
2023-05-05T12:00:20.923Z,1.90
2023-05-05T12:02:57.874Z,2.10
2023-05-05T12:05:26.241Z,1.90
2023-05-05T12:07:59.163Z,2.20
2023-05-05T12:10:27.591Z,1.63
2023-05-05T12:12:55.962Z,1.80
2023-05-05T12:15:33.552Z,1.70
2023-05-05T12:18:03.084Z,1.57
2023-05-05T12:20:33.369Z,2.30
2023-05-05T12:23:02.952Z,1.87
2023-05-05T12:25:40.625Z,1.50
2023-05-05T12:28:09.749Z,1.20
2023-05-05T12:30:39.272Z,1.20
2023-05-05T12:33:08.432Z,1.20
2023-05-05T12:35:37.080Z,0.90
2023-05-05T12:38:05.209Z,0.80
2023-05-05T12:40:47.398Z,0.80
2023-05-05T12:43:29.528Z,0.90
2023-05-05T12:46:10.403Z,0.97
2023-05-05T12:48:39.402Z,0.83
2023-05-05T12:51:18.262Z,0.70
2023-05-05T12:53:46.789Z,0.80
2023-05-05T12:56:37.651Z,0.70
2023-05-05T12:59:07.519Z,0.90
2023-05-05T13:01:37.916Z,0.57
2023-05-05T13:04:11.255Z,0.50
2023-05-05T13:06:40.312Z,0.67
2023-05-05T13:09:08.983Z,0.70
2023-05-05T13:11:37.904Z,0.70
2023-05-05T13:14:07.169Z,0.70
2023-05-05T13:16:36.662Z,0.70
2023-05-05T13:19:04.788Z,1.10
2023-05-05T13:21:33.051Z,0.80
2023-05-05T13:24:18.328Z,1.00
2023-05-05T13:26:49.630Z,0.90
2023-05-05T13:29:18.007Z,1.10
2023-05-05T13:31:47.533Z,0.80
2023-05-05T13:34:15.624Z,1.00
2023-05-05T13:36:43.655Z,1.20
2023-05-05T13:39:12.546Z,1.10
2023-05-05T13:41:40.680Z,1.10
2023-05-05T13:44:08.934Z,1.17
2023-05-05T13:46:37.177Z,1.10
2023-05-05T13:49:06.663Z,1.37
2023-05-05T13:51:35.719Z,1.00
2023-05-05T13:54:04.335Z,0.73
2023-05-05T13:56:32.688Z,1.20
2023-05-05T13:59:00.953Z,0.83
2023-05-05T14:01:29.555Z,0.70
2023-05-05T14:03:58.465Z,1.07
2023-05-05T14:06:27.960Z,1.00
2023-05-05T14:08:56.007Z,1.07
2023-05-05T14:11:24.402Z,0.90
2023-05-05T14:13:52.790Z,0.83
2023-05-05T14:16:21.079Z,0.90
2023-05-05T14:18:49.194Z,0.90
2023-05-05T14:21:17.281Z,0.93
2023-05-05T14:23:46.740Z,1.10
2023-05-05T14:26:14.822Z,0.87
2023-05-05T14:28:43.584Z,1.10
2023-05-05T14:31:11.987Z,1.10
2023-05-05T14:33:40.204Z,1.07
2023-05-05T14:36:08.989Z,1.10
2023-05-05T14:38:37.124Z,1.10
2023-05-05T14:41:06.941Z,1.07
2023-05-05T14:43:35.676Z,1.33
2023-05-05T14:46:06.898Z,0.97
2023-05-05T14:48:35.668Z,1.00
2023-05-05T14:51:04.238Z,1.13
2023-05-05T14:53:32.336Z,1.20
2023-05-05T14:56:02.279Z,0.93
2023-05-05T14:58:31.969Z,0.93
2023-05-05T15:01:00.534Z,1.10
2023-05-05T15:03:28.949Z,0.93
2023-05-05T15:05:57.432Z,0.90
2023-05-05T15:08:25.623Z,1.07
2023-05-05T15:10:53.690Z,1.10
2023-05-05T15:13:21.815Z,1.00
2023-05-05T15:15:51.385Z,1.30
2023-05-05T15:18:20.071Z,0.97
2023-05-05T15:20:48.140Z,1.10
2023-05-05T15:23:16.221Z,1.10
2023-05-05T15:25:44.353Z,1.00
2023-05-05T15:28:12.508Z,1.20
2023-05-05T15:30:40.588Z,1.10
2023-05-05T15:33:10.046Z,0.87
2023-05-05T15:35:38.249Z,1.10
2023-05-05T15:38:06.417Z,1.20
2023-05-05T15:40:34.569Z,1.10
2023-05-05T15:43:03.913Z,1.30
2023-05-05T15:45:32.099Z,1.00
2023-05-05T15:48:00.278Z,1.13
2023-05-05T15:50:29.745Z,1.20
2023-05-05T15:52:58.061Z,1.00
2023-05-05T15:55:26.464Z,1.10
2023-05-05T15:57:55.060Z,0.90
2023-05-05T16:00:24.240Z,0.80
2023-05-05T16:02:52.389Z,1.30
2023-05-05T16:05:22.845Z,0.93
2023-05-05T16:07:53.699Z,1.70
2023-05-05T16:10:22.036Z,1.20
2023-05-05T16:12:51.995Z,1.30
2023-05-05T16:15:20.376Z,1.57
2023-05-05T16:17:48.481Z,2.13
2023-05-05T16:20:16.575Z,1.50
2023-05-05T16:22:44.681Z,1.20
2023-05-05T16:25:17.711Z,1.40
2023-05-05T16:27:45.849Z,1.53
2023-05-05T16:30:15.473Z,3.10
2023-05-05T16:32:43.964Z,1.30
2023-05-05T16:35:12.189Z,2.03
2023-05-05T16:37:40.370Z,1.50
2023-05-05T16:40:09.834Z,1.10
2023-05-05T16:42:39.366Z,1.13
2023-05-05T16:45:09.124Z,1.20
2023-05-05T16:47:37.402Z,1.10
2023-05-05T16:50:06.501Z,1.00
2023-05-05T16:52:34.940Z,1.37
2023-05-05T16:55:04.853Z,1.40
2023-05-05T16:57:33.163Z,1.20
2023-05-05T17:00:03.371Z,1.30
2023-05-05T17:02:31.467Z,1.20
2023-05-05T17:04:59.771Z,1.40
2023-05-05T17:07:28.304Z,1.20
2023-05-05T17:09:56.445Z,1.40
2023-05-05T17:12:24.469Z,1.60
2023-05-05T17:14:52.568Z,1.30
2023-05-05T17:17:22.038Z,1.40
2023-05-05T17:19:50.477Z,1.50
2023-05-05T17:22:18.593Z,1.40
2023-05-05T17:24:46.720Z,1.90
2023-05-05T17:27:14.865Z,1.70
2023-05-05T17:29:43.182Z,1.50
2023-05-05T17:32:11.603Z,1.47
2023-05-05T17:34:41.217Z,1.70
2023-05-05T17:37:10.388Z,1.87
2023-05-05T17:39:38.522Z,1.83
2023-05-05T17:42:06.654Z,1.40
2023-05-05T17:44:34.792Z,1.77
2023-05-05T17:47:04.013Z,1.63
2023-05-05T17:49:32.127Z,1.50
2023-05-05T17:52:01.747Z,1.70
2023-05-05T17:54:30.058Z,1.53
2023-05-05T17:56:59.630Z,1.60
2023-05-05T17:59:27.796Z,2.20
2023-05-05T18:01:55.909Z,2.30
2023-05-05T18:04:24.306Z,2.20
2023-05-05T18:06:52.627Z,2.27
2023-05-05T18:09:22.242Z,1.80
2023-05-05T18:11:53.000Z,1.77
2023-05-05T18:14:22.447Z,1.57
2023-05-05T18:16:52.399Z,1.70
2023-05-05T18:19:22.206Z,1.50
2023-05-05T18:21:51.780Z,1.23
2023-05-05T18:24:21.410Z,1.40
2023-05-05T18:26:50.961Z,1.70
2023-05-05T18:29:19.353Z,1.60
2023-05-05T18:31:51.487Z,1.27
2023-05-05T18:34:20.607Z,1.33
2023-05-05T18:36:49.385Z,1.40
2023-05-05T18:39:17.925Z,1.37
2023-05-05T18:42:03.571Z,1.90
2023-05-05T18:44:32.741Z,1.60
2023-05-05T18:47:01.168Z,1.37
2023-05-05T18:49:31.337Z,1.73
2023-05-05T18:51:59.764Z,1.90
2023-05-05T18:54:28.233Z,1.63
2023-05-05T18:56:56.401Z,1.70
2023-05-05T18:59:25.972Z,1.77
2023-05-05T19:01:54.131Z,1.80
2023-05-05T19:04:30.860Z,1.50
